Time;durP1;ratioP1;P1;durP2;ratioP2;P2;SDS_P1;SDS_P2;PMS_P1;PMS_P2;Temp;Humidity;BMP_temperature;BMP_pressure;BME280_temperature;BME280_humidity;BME280_pressure;Samples;Min_cycle;Max_cycle;Signal;HPM_P1;HPM_P2
2024/01/24 00:02:22;;;;;;;6.50;2.90;;;10.90;99.90;;;;;;5033029;28;20139;-77
2024/01/24 00:04:48;;;;;;;11.57;3.40;;;11.00;99.90;;;;;;5026908;28;20193;-79
2024/01/24 00:07:14;;;;;;;15.32;2.83;;;11.00;99.90;;;;;;5013422;28;20077;-79
2024/01/24 00:09:40;;;;;;;9.15;3.10;;;10.90;99.90;;;;;;5017766;28;20052;-79
2024/01/24 00:12:06;;;;;;;13.18;3.28;;;10.90;99.90;;;;;;4998910;28;20196;-79
2024/01/24 00:14:33;;;;;;;10.13;2.67;;;11.00;99.90;;;;;;4996983;28;20132;-79
2024/01/24 00:16:59;;;;;;;10.50;2.88;;;11.00;99.90;;;;;;5001995;28;20037;-78
2024/01/24 00:19:25;;;;;;;14.63;3.13;;;10.90;99.90;;;;;;5030937;28;20049;-81
2024/01/24 00:21:50;;;;;;;12.05;2.10;;;10.90;99.90;;;;;;5020442;28;20050;-78
2024/01/24 00:24:16;;;;;;;12.40;2.83;;;11.00;99.90;;;;;;5015879;28;20108;-80
2024/01/24 00:26:42;;;;;;;11.15;2.90;;;10.90;99.90;;;;;;5016153;28;20693;-78
2024/01/24 00:29:07;;;;;;;10.40;2.33;;;10.90;99.90;;;;;;5033223;28;20473;-80
2024/01/24 00:31:33;;;;;;;15.68;2.47;;;10.90;99.90;;;;;;5033057;28;20498;-79
2024/01/24 00:34:01;;;;;;;10.20;2.05;;;10.90;99.90;;;;;;5032898;28;20466;-79
2024/01/24 00:36:27;;;;;;;15.38;3.05;;;10.90;99.90;;;;;;5032388;28;20085;-79
2024/01/24 00:38:52;;;;;;;11.50;2.10;;;10.90;99.90;;;;;;5032163;28;20084;-79
2024/01/24 00:41:18;;;;;;;10.98;2.55;;;10.90;99.90;;;;;;5032287;28;20053;-80
2024/01/24 00:43:44;;;;;;;11.10;2.05;;;10.80;99.90;;;;;;5031870;28;20045;-79
2024/01/24 00:46:09;;;;;;;9.65;2.35;;;10.90;99.90;;;;;;5032589;28;20395;-78
2024/01/24 00:48:35;;;;;;;14.02;2.25;;;10.90;99.90;;;;;;5031159;28;20041;-79
2024/01/24 00:51:01;;;;;;;11.48;2.55;;;10.90;99.90;;;;;;5032084;28;20053;-79
2024/01/24 00:53:29;;;;;;;12.35;2.28;;;10.90;99.90;;;;;;5032148;28;20132;-79
2024/01/24 00:55:58;;;;;;;14.07;1.90;;;10.90;99.90;;;;;;5032590;28;20606;-80
2024/01/24 00:58:24;;;;;;;13.23;2.08;;;10.90;99.90;;;;;;5022279;28;20056;-79
2024/01/24 01:00:50;;;;;;;10.68;2.17;;;10.90;99.90;;;;;;5012016;28;20046;-79
2024/01/24 01:03:16;;;;;;;9.95;2.05;;;10.90;99.90;;;;;;5012442;28;20046;-79
2024/01/24 01:05:43;;;;;;;12.07;1.50;;;11.00;99.90;;;;;;5011879;28;20046;-78
2024/01/24 01:08:08;;;;;;;10.75;1.67;;;11.00;99.90;;;;;;5018553;28;20123;-78
2024/01/24 01:10:34;;;;;;;11.65;1.65;;;10.90;99.90;;;;;;5031662;28;20438;-78
2024/01/24 01:13:00;;;;;;;12.48;2.05;;;11.00;99.90;;;;;;5032002;28;20098;-78
2024/01/24 01:15:26;;;;;;;10.15;1.92;;;11.00;99.90;;;;;;5031968;28;20464;-78
2024/01/24 01:17:51;;;;;;;6.35;1.38;;;11.00;99.90;;;;;;5030971;28;20048;-77
2024/01/24 01:20:20;;;;;;;8.77;1.52;;;11.00;99.90;;;;;;5029944;28;20053;-79
2024/01/24 01:22:46;;;;;;;9.25;1.58;;;11.00;99.90;;;;;;5015306;28;20045;-78
2024/01/24 01:25:12;;;;;;;7.03;1.50;;;11.00;99.90;;;;;;5031202;28;20071;-78
2024/01/24 01:27:38;;;;;;;11.27;1.75;;;11.00;99.90;;;;;;5031521;28;20041;-78
2024/01/24 01:30:04;;;;;;;7.80;1.80;;;11.10;99.90;;;;;;5029871;28;20061;-79
2024/01/24 01:32:30;;;;;;;7.45;1.55;;;11.10;99.90;;;;;;5031608;28;20049;-78
2024/01/24 01:34:55;;;;;;;11.93;1.92;;;11.10;99.90;;;;;;5030843;28;20107;-79
2024/01/24 01:37:23;;;;;;;10.52;1.83;;;11.10;99.90;;;;;;5015195;28;20513;-79
2024/01/24 01:39:49;;;;;;;5.75;1.23;;;11.10;99.90;;;;;;5031281;28;20057;-80
2024/01/24 01:42:15;;;;;;;8.45;1.50;;;11.20;99.90;;;;;;5031838;28;20050;-79
2024/01/24 01:44:48;;;;;;;7.80;1.20;;;11.20;99.90;;;;;;5014973;28;20049;-79
2024/01/24 01:47:15;;;;;;;11.93;1.40;;;11.20;99.90;;;;;;5031394;28;20119;-80
2024/01/24 01:49:45;;;;;;;6.85;1.50;;;11.30;99.90;;;;;;5029776;28;20059;-81
2024/01/24 01:52:11;;;;;;;10.13;2.05;;;11.20;99.90;;;;;;5031256;28;20041;-80
2024/01/24 01:54:39;;;;;;;6.88;1.40;;;11.30;99.90;;;;;;5030811;28;20107;-79
2024/01/24 01:57:08;;;;;;;10.80;0.98;;;11.30;99.90;;;;;;5027118;28;20042;-79
2024/01/24 01:59:34;;;;;;;11.80;1.30;;;11.30;99.90;;;;;;5020245;28;20080;-79
2024/01/24 02:02:01;;;;;;;5.30;1.00;;;11.30;99.90;;;;;;5023298;28;20148;-78
2024/01/24 02:04:28;;;;;;;6.57;2.15;;;11.30;99.90;;;;;;5011007;28;20046;-80
2024/01/24 02:06:55;;;;;;;7.68;1.33;;;11.30;99.90;;;;;;5027704;28;20088;-79
2024/01/24 02:09:22;;;;;;;10.07;1.60;;;11.30;99.90;;;;;;5030638;28;20175;-78
2024/01/24 02:11:47;;;;;;;7.63;1.25;;;11.30;99.90;;;;;;5030057;28;20045;-80
2024/01/24 02:14:13;;;;;;;10.77;1.77;;;11.30;99.90;;;;;;5035024;28;20451;-78
2024/01/24 02:16:39;;;;;;;9.35;1.40;;;11.30;99.90;;;;;;5034626;28;20579;-80
2024/01/24 02:19:06;;;;;;;8.30;1.23;;;11.30;99.90;;;;;;5034798;28;20136;-79
2024/01/24 02:21:32;;;;;;;6.22;1.10;;;11.30;99.90;;;;;;5033106;28;20068;-81
2024/01/24 02:23:59;;;;;;;6.18;1.30;;;11.30;99.90;;;;;;5034256;28;20038;-79
2024/01/24 02:26:25;;;;;;;9.32;1.30;;;11.30;99.90;;;;;;5034464;28;20136;-79
2024/01/24 02:28:51;;;;;;;4.93;1.00;;;11.20;99.90;;;;;;5032487;28;20452;-77
2024/01/24 02:31:17;;;;;;;7.38;1.63;;;11.30;99.90;;;;;;5034155;28;20058;-79
2024/01/24 02:33:42;;;;;;;8.95;1.80;;;11.30;99.90;;;;;;5033614;28;20423;-77
2024/01/24 02:36:09;;;;;;;9.93;1.40;;;11.30;99.90;;;;;;5034631;28;20053;-78
2024/01/24 02:38:35;;;;;;;11.20;1.63;;;11.30;99.90;;;;;;5033797;28;20139;-78
2024/01/24 02:41:01;;;;;;;9.38;1.30;;;11.20;99.90;;;;;;5033000;28;20416;-77
2024/01/24 02:43:27;;;;;;;11.27;1.45;;;11.20;99.90;;;;;;5034405;28;20406;-78
2024/01/24 02:45:52;;;;;;;12.32;1.33;;;11.20;99.90;;;;;;5033846;28;20055;-77
2024/01/24 02:48:18;;;;;;;8.05;2.15;;;11.20;99.90;;;;;;5034260;28;20057;-77
2024/01/24 02:50:44;;;;;;;10.60;1.52;;;11.20;99.90;;;;;;5034236;28;20049;-77
2024/01/24 02:53:09;;;;;;;7.85;1.38;;;11.10;99.90;;;;;;5031888;28;20099;-78
2024/01/24 02:55:35;;;;;;;8.65;1.98;;;11.10;99.90;;;;;;5000321;28;20434;-78
2024/01/24 02:58:00;;;;;;;11.85;1.52;;;11.20;99.90;;;;;;5014836;28;20052;-77
2024/01/24 03:00:28;;;;;;;10.13;1.48;;;11.20;99.90;;;;;;5032324;28;20041;-77
2024/01/24 03:02:54;;;;;;;5.93;1.50;;;11.20;99.90;;;;;;5033121;28;20049;-77
2024/01/24 03:05:21;;;;;;;10.25;1.50;;;11.20;99.90;;;;;;5031507;28;20046;-78
2024/01/24 03:07:47;;;;;;;10.10;1.70;;;11.10;99.90;;;;;;5033450;28;20430;-78
2024/01/24 03:10:13;;;;;;;10.55;1.70;;;11.10;99.90;;;;;;5034030;28;20053;-79
2024/01/24 03:12:38;;;;;;;9.90;2.00;;;11.10;99.90;;;;;;5033354;28;20053;-77
2024/01/24 03:15:05;;;;;;;14.88;2.50;;;11.00;99.90;;;;;;5032305;28;20041;-77
2024/01/24 03:17:32;;;;;;;11.73;1.85;;;11.00;99.90;;;;;;5033521;28;20099;-78
2024/01/24 03:19:58;;;;;;;19.05;2.35;;;11.00;99.90;;;;;;5033216;28;20526;-79
2024/01/24 03:22:24;;;;;;;15.57;2.40;;;10.90;99.90;;;;;;5033568;28;20041;-78
2024/01/24 03:24:51;;;;;;;15.10;2.67;;;11.00;99.90;;;;;;5031758;28;20530;-79
2024/01/24 03:27:17;;;;;;;21.23;3.53;;;10.80;99.90;;;;;;5033402;28;20112;-78
2024/01/24 03:29:42;;;;;;;14.98;2.60;;;10.80;99.90;;;;;;5023097;28;20144;-77
2024/01/24 03:32:09;;;;;;;16.13;3.28;;;10.80;99.90;;;;;;5010266;28;20049;-78
2024/01/24 03:34:34;;;;;;;18.95;2.70;;;10.80;99.90;;;;;;5033038;28;20049;-80
2024/01/24 03:37:00;;;;;;;19.13;3.05;;;10.80;99.90;;;;;;5032014;28;20060;-78
2024/01/24 03:39:25;;;;;;;15.45;3.22;;;10.90;99.90;;;;;;5033080;28;20049;-77
2024/01/24 03:41:51;;;;;;;21.98;3.70;;;10.70;99.90;;;;;;5032915;28;20041;-78
2024/01/24 03:44:17;;;;;;;15.38;2.60;;;10.70;99.90;;;;;;5032850;28;20049;-78
2024/01/24 03:46:43;;;;;;;20.08;3.20;;;10.60;99.90;;;;;;5015285;28;20041;-80
2024/01/24 03:49:09;;;;;;;15.57;2.67;;;10.70;99.90;;;;;;5015229;28;20050;-78
2024/01/24 03:51:34;;;;;;;17.73;3.33;;;10.80;99.90;;;;;;5012862;28;20052;-76
2024/01/24 03:54:00;;;;;;;19.73;3.13;;;10.70;99.90;;;;;;5032797;28;20056;-78
2024/01/24 03:56:25;;;;;;;17.35;2.78;;;10.80;99.90;;;;;;4999078;28;20466;-77
2024/01/24 03:58:51;;;;;;;16.20;3.20;;;10.90;99.90;;;;;;5032641;28;20037;-78
2024/01/24 04:01:17;;;;;;;18.45;2.53;;;10.70;99.90;;;;;;5031867;28;20045;-78
2024/01/24 04:03:42;;;;;;;13.85;2.67;;;10.70;99.90;;;;;;5032863;28;20098;-77
2024/01/24 04:06:08;;;;;;;24.75;4.70;;;10.70;99.90;;;;;;5033039;28;20045;-79
2024/01/24 04:08:34;;;;;;;22.80;3.90;;;10.70;99.90;;;;;;5029265;28;20115;-77
2024/01/24 04:10:59;;;;;;;18.67;3.10;;;10.70;99.90;;;;;;5032129;28;20049;-79
2024/01/24 04:13:25;;;;;;;20.92;3.30;;;10.60;99.90;;;;;;5033166;28;20510;-77
2024/01/24 04:15:51;;;;;;;20.15;3.30;;;10.70;99.90;;;;;;5032931;28;20113;-77
2024/01/24 04:18:16;;;;;;;19.95;3.25;;;10.70;99.90;;;;;;5032872;28;20108;-78
2024/01/24 04:20:42;;;;;;;24.25;3.75;;;10.70;99.90;;;;;;5013946;28;20053;-78
2024/01/24 04:23:08;;;;;;;21.08;5.00;;;10.60;99.90;;;;;;5032773;28;20068;-78
2024/01/24 04:25:33;;;;;;;21.38;4.30;;;10.60;99.90;;;;;;5032148;28;20065;-77
2024/01/24 04:27:59;;;;;;;24.63;3.75;;;10.60;99.90;;;;;;5032352;28;20052;-77
2024/01/24 04:30:25;;;;;;;20.42;3.33;;;10.60;99.90;;;;;;5031061;28;20495;-77
2024/01/24 04:32:50;;;;;;;25.00;4.28;;;10.60;99.90;;;;;;5031953;28;20148;-77
2024/01/24 04:35:18;;;;;;;27.17;3.95;;;10.60;99.90;;;;;;5015795;28;20054;-77
2024/01/24 04:37:43;;;;;;;28.75;5.28;;;10.60;99.90;;;;;;5032613;28;20426;-76
2024/01/24 04:40:10;;;;;;;25.63;3.85;;;10.50;99.90;;;;;;5016548;28;20049;-76
2024/01/24 04:42:36;;;;;;;23.45;4.20;;;10.40;99.90;;;;;;5033013;28;20050;-76
2024/01/24 04:45:01;;;;;;;28.02;3.70;;;10.40;99.90;;;;;;5032617;28;20053;-77
2024/01/24 04:47:27;;;;;;;23.95;3.63;;;10.40;99.90;;;;;;5032331;28;20045;-77
2024/01/24 04:49:53;;;;;;;28.52;4.47;;;10.30;99.90;;;;;;5033372;28;20045;-77
2024/01/24 04:52:19;;;;;;;21.05;4.07;;;10.30;99.90;;;;;;5030952;28;20103;-78
2024/01/24 04:54:47;;;;;;;25.48;5.40;;;10.20;99.90;;;;;;5032385;28;20033;-78
2024/01/24 04:57:12;;;;;;;22.42;3.75;;;10.10;99.90;;;;;;5032062;28;20052;-80
2024/01/24 04:59:41;;;;;;;26.70;5.80;;;10.10;99.90;;;;;;5030839;28;20037;-78
2024/01/24 05:02:06;;;;;;;23.85;4.32;;;10.00;99.90;;;;;;5032029;28;20053;-78
2024/01/24 05:04:32;;;;;;;32.17;5.20;;;10.00;99.90;;;;;;5031664;28;20041;-79
2024/01/24 05:06:58;;;;;;;22.48;4.13;;;10.00;99.90;;;;;;5031734;28;20387;-78
2024/01/24 05:09:23;;;;;;;24.80;5.10;;;10.00;99.90;;;;;;5019029;28;20045;-77
2024/01/24 05:11:49;;;;;;;24.02;5.43;;;10.00;99.90;;;;;;5031785;28;20056;-78
2024/01/24 05:14:15;;;;;;;20.10;4.22;;;9.90;99.90;;;;;;5032149;28;20625;-78
2024/01/24 05:16:41;;;;;;;24.95;4.18;;;10.00;99.90;;;;;;5031532;28;20060;-78
2024/01/24 05:19:07;;;;;;;24.55;4.90;;;9.90;99.90;;;;;;5031251;28;20136;-81
2024/01/24 05:21:40;;;;;;;22.42;4.70;;;9.80;99.90;;;;;;5031665;28;20124;-79
2024/01/24 05:24:06;;;;;;;28.70;4.57;;;9.90;99.90;;;;;;5031319;28;20498;-78
2024/01/24 05:26:32;;;;;;;24.00;4.35;;;9.90;99.90;;;;;;5031111;28;20292;-78
2024/01/24 05:29:01;;;;;;;23.27;4.82;;;10.00;99.90;;;;;;5030989;28;20068;-80
2024/01/24 05:31:27;;;;;;;33.42;4.88;;;9.90;99.90;;;;;;5030523;28;20049;-80
2024/01/24 05:33:55;;;;;;;37.40;5.38;;;9.90;99.90;;;;;;5015047;28;20053;-78
2024/01/24 05:36:21;;;;;;;27.40;5.38;;;10.10;99.90;;;;;;5030846;28;20434;-77
2024/01/24 05:38:46;;;;;;;23.73;4.90;;;10.00;99.90;;;;;;5031190;28;20059;-78
2024/01/24 05:41:12;;;;;;;31.20;5.35;;;10.00;99.90;;;;;;5030321;28;20534;-79
2024/01/24 05:43:38;;;;;;;25.67;4.65;;;10.00;99.90;;;;;;5030748;28;20069;-78
2024/01/24 05:46:03;;;;;;;27.85;4.53;;;10.10;99.90;;;;;;5030791;28;20053;-78
2024/01/24 05:48:29;;;;;;;24.38;5.05;;;10.10;99.90;;;;;;5027042;28;20053;-78
2024/01/24 05:50:54;;;;;;;25.52;5.07;;;10.00;99.90;;;;;;5030459;28;20570;-78
2024/01/24 05:53:20;;;;;;;25.85;4.88;;;10.00;99.90;;;;;;5030955;28;20049;-78
2024/01/24 05:55:46;;;;;;;27.00;5.50;;;10.10;99.90;;;;;;5030639;28;20081;-78
2024/01/24 05:58:12;;;;;;;25.27;4.88;;;10.00;99.90;;;;;;5030666;28;20050;-79
2024/01/24 06:00:37;;;;;;;28.70;5.88;;;10.00;99.90;;;;;;5020480;28;20050;-78
2024/01/24 06:03:03;;;;;;;31.75;4.88;;;10.00;99.90;;;;;;5030564;28;20049;-78
2024/01/24 06:05:29;;;;;;;30.45;6.22;;;10.00;99.90;;;;;;5013983;28;20476;-77
2024/01/24 06:07:54;;;;;;;35.17;5.40;;;10.00;99.90;;;;;;5026822;28;20091;-77
2024/01/24 06:10:20;;;;;;;26.42;5.72;;;9.90;99.90;;;;;;5014178;28;20057;-78
2024/01/24 06:12:46;;;;;;;29.15;5.60;;;9.90;99.90;;;;;;5011551;28;20488;-79
2024/01/24 06:15:12;;;;;;;34.45;6.47;;;9.90;99.90;;;;;;5015081;28;20423;-78
2024/01/24 06:17:38;;;;;;;31.77;5.53;;;10.00;99.90;;;;;;5039163;28;20049;-78
2024/01/24 06:20:05;;;;;;;32.85;6.63;;;9.90;99.90;;;;;;5009386;28;20383;-78
2024/01/24 06:22:33;;;;;;;32.92;6.00;;;9.90;99.90;;;;;;5015057;28;20120;-78
2024/01/24 06:25:01;;;;;;;29.42;6.07;;;9.90;99.90;;;;;;5026311;28;20148;-80
2024/01/24 06:27:27;;;;;;;39.05;7.30;;;9.90;99.90;;;;;;5030965;28;20072;-78
2024/01/24 06:29:56;;;;;;;33.25;5.80;;;9.90;99.90;;;;;;5028486;28;20045;-79
2024/01/24 06:32:22;;;;;;;27.13;5.35;;;9.90;99.90;;;;;;5030538;28;20840;-80
2024/01/24 06:34:47;;;;;;;33.67;6.18;;;9.90;99.90;;;;;;5025568;28;20045;-79
2024/01/24 06:37:13;;;;;;;30.05;6.38;;;9.90;99.90;;;;;;5027582;28;20045;-77
2024/01/24 06:39:39;;;;;;;39.45;6.55;;;9.80;99.90;;;;;;5022354;28;20042;-77
2024/01/24 06:42:05;;;;;;;33.75;6.20;;;9.80;99.90;;;;;;5024630;28;20076;-76
2024/01/24 06:44:30;;;;;;;31.10;6.53;;;9.80;99.90;;;;;;5017685;28;20475;-78
2024/01/24 06:46:56;;;;;;;36.88;6.90;;;9.80;99.90;;;;;;5016790;28;21604;-78
2024/01/24 06:49:24;;;;;;;30.25;5.88;;;9.80;99.90;;;;;;5022095;28;20045;-78
2024/01/24 06:51:51;;;;;;;34.40;6.55;;;9.80;99.90;;;;;;5022078;28;20395;-79
2024/01/24 06:54:16;;;;;;;27.02;5.28;;;9.80;99.90;;;;;;5025543;28;20717;-79
2024/01/24 06:56:43;;;;;;;43.92;7.72;;;9.80;99.90;;;;;;5020024;28;20065;-81
2024/01/24 06:59:10;;;;;;;31.40;5.85;;;9.80;99.90;;;;;;5008486;28;20046;-79
2024/01/24 07:01:36;;;;;;;33.72;6.85;;;9.80;99.90;;;;;;5028407;28;20045;-78
2024/01/24 07:04:02;;;;;;;31.88;6.57;;;9.80;99.90;;;;;;5025912;28;20048;-79
2024/01/24 07:06:28;;;;;;;24.35;4.82;;;9.80;99.90;;;;;;5033936;28;20042;-78
2024/01/24 07:08:54;;;;;;;27.50;6.38;;;9.70;99.90;;;;;;5030647;28;20123;-80
2024/01/24 07:11:19;;;;;;;27.45;5.18;;;9.80;99.90;;;;;;5025662;28;20499;-80
2024/01/24 07:13:45;;;;;;;33.47;6.40;;;9.80;99.90;;;;;;5031637;28;20044;-80
2024/01/24 07:16:11;;;;;;;33.03;6.57;;;9.80;99.90;;;;;;5033589;28;20057;-79
2024/01/24 07:18:37;;;;;;;24.02;4.47;;;9.80;99.90;;;;;;5013598;28;20159;-78
2024/01/24 07:21:06;;;;;;;29.83;5.82;;;9.80;99.90;;;;;;5028892;28;20049;-77
2024/01/24 07:23:32;;;;;;;28.08;5.50;;;9.80;99.90;;;;;;5032850;28;20117;-79
2024/01/24 07:25:58;;;;;;;27.10;5.35;;;9.80;99.90;;;;;;5012673;28;20140;-76
2024/01/24 07:28:28;;;;;;;27.63;5.38;;;9.80;99.90;;;;;;5016383;28;20070;-80
2024/01/24 07:30:54;;;;;;;34.75;5.97;;;9.80;99.90;;;;;;5031443;28;20038;-80
2024/01/24 07:33:20;;;;;;;26.02;5.15;;;9.90;99.90;;;;;;5014295;28;20506;-79
2024/01/24 07:35:46;;;;;;;32.30;6.63;;;9.80;99.90;;;;;;5034068;28;20042;-79
2024/01/24 07:38:11;;;;;;;28.30;5.60;;;9.80;99.90;;;;;;5034967;28;20055;-79
2024/01/24 07:40:37;;;;;;;26.15;5.15;;;9.70;99.90;;;;;;5034328;28;20047;-79
2024/01/24 07:43:03;;;;;;;24.65;4.88;;;10.00;99.90;;;;;;5034904;28;20048;-80
2024/01/24 07:45:28;;;;;;;37.30;5.55;;;9.60;99.90;;;;;;5034436;28;20053;-79
2024/01/24 07:47:54;;;;;;;36.30;5.88;;;9.50;99.90;;;;;;5034103;28;20124;-78
2024/01/24 07:50:20;;;;;;;40.28;7.32;;;9.50;99.90;;;;;;5042903;28;20080;-79
2024/01/24 07:52:46;;;;;;;31.38;6.00;;;9.50;99.90;;;;;;5033406;28;20084;-79
2024/01/24 07:55:13;;;;;;;41.08;6.13;;;9.50;99.90;;;;;;5033671;28;20081;-79
2024/01/24 07:57:41;;;;;;;36.28;5.88;;;9.60;99.90;;;;;;5033264;28;20052;-79
2024/01/24 08:00:07;;;;;;;33.30;5.78;;;9.60;99.90;;;;;;5031456;28;20057;-79
2024/01/24 08:02:33;;;;;;;34.08;6.72;;;9.60;99.90;;;;;;5016644;28;20053;-79
2024/01/24 08:04:59;;;;;;;33.28;6.82;;;9.60;99.90;;;;;;5032426;28;20484;-82
2024/01/24 08:07:25;;;;;;;45.28;7.55;;;9.50;99.90;;;;;;5016541;28;20046;-80
2024/01/24 08:09:51;;;;;;;38.40;6.32;;;9.50;99.90;;;;;;5032516;28;20103;-80
2024/01/24 08:12:21;;;;;;;26.08;5.70;;;9.50;99.90;;;;;;5016629;28;20045;-82
2024/01/24 08:14:46;;;;;;;32.72;5.90;;;9.50;99.90;;;;;;5033177;28;20138;-82
2024/01/24 08:17:13;;;;;;;31.05;6.38;;;9.60;99.90;;;;;;5030970;28;20084;-81
2024/01/24 08:19:39;;;;;;;27.20;5.97;;;9.50;99.90;;;;;;5031374;28;20049;-82
2024/01/24 08:22:05;;;;;;;30.75;5.63;;;9.60;99.90;;;;;;5032878;28;20364;-80
2024/01/24 08:24:31;;;;;;;29.27;6.22;;;9.50;99.90;;;;;;5032673;28;20391;-81
2024/01/24 08:26:57;;;;;;;38.45;6.93;;;9.50;99.90;;;;;;5032444;28;20057;-82
2024/01/24 08:29:26;;;;;;;32.08;5.25;;;9.40;99.90;;;;;;5022487;28;20056;-81
2024/01/24 08:31:52;;;;;;;39.92;7.28;;;9.40;99.90;;;;;;5021801;28;20047;-79
2024/01/24 08:34:18;;;;;;;29.70;6.53;;;9.40;99.90;;;;;;5030812;28;20124;-79
2024/01/24 08:36:43;;;;;;;39.65;7.22;;;9.50;99.90;;;;;;5024262;28;20050;-78
2024/01/24 08:39:10;;;;;;;27.92;5.75;;;9.50;99.90;;;;;;4996665;28;20081;-79
2024/01/24 08:41:36;;;;;;;34.20;6.72;;;9.50;99.90;;;;;;5014372;28;20125;-80
2024/01/24 08:44:04;;;;;;;35.28;6.85;;;9.50;99.90;;;;;;5030540;28;20152;-79
2024/01/24 08:46:32;;;;;;;39.00;6.47;;;9.50;99.90;;;;;;5015838;28;20482;-79
2024/01/24 08:48:58;;;;;;;32.17;4.95;;;9.50;99.90;;;;;;5032467;28;20041;-78
2024/01/24 08:51:29;;;;;;;36.50;6.30;;;9.40;99.90;;;;;;5015146;28;20383;-78
2024/01/24 08:53:55;;;;;;;31.70;5.20;;;9.40;99.90;;;;;;5031412;28;20053;-78
2024/01/24 08:56:20;;;;;;;39.35;6.85;;;9.40;99.90;;;;;;5030115;28;20052;-79
2024/01/24 08:58:46;;;;;;;33.85;6.85;;;9.40;99.90;;;;;;5030916;28;20461;-78
2024/01/24 09:01:12;;;;;;;31.10;6.35;;;9.50;99.90;;;;;;5020283;28;20057;-79
2024/01/24 09:03:37;;;;;;;27.08;5.43;;;9.50;99.90;;;;;;5018331;28;20046;-79
2024/01/24 09:06:04;;;;;;;29.52;5.78;;;9.50;99.90;;;;;;5029763;28;20049;-78
2024/01/24 09:08:29;;;;;;;29.48;6.53;;;9.50;99.90;;;;;;5031300;28;20050;-77
2024/01/24 09:10:55;;;;;;;30.17;5.78;;;9.50;99.90;;;;;;5030816;28;20050;-78
2024/01/24 09:13:22;;;;;;;36.40;6.53;;;9.50;99.90;;;;;;5031146;28;20049;-77
2024/01/24 09:15:48;;;;;;;33.85;7.20;;;9.50;99.90;;;;;;5028345;28;20511;-78
2024/01/24 09:18:14;;;;;;;32.20;6.63;;;9.50;99.90;;;;;;5030078;28;20134;-77
2024/01/24 09:20:40;;;;;;;36.45;6.40;;;9.40;99.90;;;;;;5030999;28;20045;-78
2024/01/24 09:23:05;;;;;;;38.28;7.47;;;9.40;99.90;;;;;;5030911;28;20049;-77
2024/01/24 09:25:31;;;;;;;36.05;7.13;;;9.40;99.90;;;;;;5028331;28;20064;-78
2024/01/24 09:27:57;;;;;;;29.25;6.22;;;9.50;99.90;;;;;;5030737;28;20053;-80
2024/01/24 09:30:22;;;;;;;31.38;6.47;;;9.40;99.90;;;;;;5031051;28;20073;-79
2024/01/24 09:32:48;;;;;;;27.67;5.32;;;9.40;99.90;;;;;;5030748;28;20132;-78
2024/01/24 09:35:14;;;;;;;33.17;6.05;;;9.40;99.90;;;;;;5028540;28;20041;-78
2024/01/24 09:37:39;;;;;;;36.13;6.65;;;9.50;99.90;;;;;;5014322;28;20479;-78
2024/01/24 09:40:06;;;;;;;38.40;6.68;;;9.50;99.90;;;;;;5030316;28;20052;-78
2024/01/24 09:42:37;;;;;;;22.95;4.70;;;9.50;99.90;;;;;;5030747;28;20391;-80
2024/01/24 09:45:05;;;;;;;36.17;6.03;;;9.50;99.90;;;;;;5027779;28;20093;-79
2024/01/24 09:47:31;;;;;;;37.40;6.78;;;9.50;99.90;;;;;;5030381;28;20111;-78
2024/01/24 09:49:59;;;;;;;21.25;5.05;;;9.50;99.90;;;;;;5004318;28;20046;-79
2024/01/24 09:52:26;;;;;;;39.72;5.85;;;9.60;99.90;;;;;;5029646;28;20081;-77
2024/01/24 09:55:00;;;;;;;32.85;6.53;;;9.60;99.90;;;;;;5030100;28;20461;-79
2024/01/24 09:57:27;;;;;;;35.20;5.75;;;9.60;99.90;;;;;;5021903;28;20133;-78
2024/01/24 09:59:54;;;;;;;38.03;6.60;;;9.60;99.90;;;;;;5026677;28;20045;-79
2024/01/24 10:02:20;;;;;;;29.67;6.30;;;9.60;99.90;;;;;;5025376;28;20396;-78
2024/01/24 10:04:48;;;;;;;24.33;5.15;;;9.70;99.90;;;;;;5029578;28;20046;-77
2024/01/24 10:07:14;;;;;;;26.73;5.13;;;9.70;99.90;;;;;;5029131;28;20051;-79
2024/01/24 10:09:41;;;;;;;27.05;5.18;;;10.00;99.90;;;;;;5030705;28;20375;-78
2024/01/24 10:12:06;;;;;;;24.65;4.90;;;9.70;99.90;;;;;;5030334;28;20056;-78
2024/01/24 10:14:33;;;;;;;25.40;5.60;;;9.80;99.90;;;;;;5030239;28;20124;-79
2024/01/24 10:16:59;;;;;;;49.92;7.13;;;9.80;99.90;;;;;;5029161;28;20049;-78
2024/01/24 10:19:25;;;;;;;23.98;5.07;;;9.80;99.90;;;;;;5025554;28;20446;-78
2024/01/24 10:21:52;;;;;;;28.52;6.00;;;9.80;99.90;;;;;;5027398;28;20463;-77
2024/01/24 10:24:18;;;;;;;31.15;5.25;;;9.80;99.90;;;;;;5030143;28;20148;-78
2024/01/24 10:26:44;;;;;;;29.23;5.32;;;9.80;99.90;;;;;;5029730;28;20060;-78
2024/01/24 10:29:13;;;;;;;30.10;5.65;;;10.00;99.90;;;;;;5029559;28;20092;-78
2024/01/24 10:31:39;;;;;;;27.55;4.80;;;9.90;99.90;;;;;;5030332;28;20491;-78
2024/01/24 10:34:06;;;;;;;27.02;5.65;;;9.90;99.90;;;;;;5032349;28;20046;-78
2024/01/24 10:36:35;;;;;;;27.75;5.03;;;10.00;99.90;;;;;;5033155;28;20866;-78
2024/01/24 10:39:05;;;;;;;31.27;6.43;;;10.00;99.90;;;;;;5034424;28;20148;-78
2024/01/24 10:41:32;;;;;;;27.50;4.53;;;10.00;99.90;;;;;;5033933;28;20128;-78
2024/01/24 10:44:05;;;;;;;29.38;5.35;;;10.00;99.90;;;;;;5033343;28;20060;-77
2024/01/24 10:46:33;;;;;;;30.40;6.10;;;10.00;99.90;;;;;;5018940;28;20467;-78
2024/01/24 10:48:59;;;;;;;28.83;6.22;;;10.10;99.90;;;;;;5034353;28;20087;-79
2024/01/24 10:51:27;;;;;;;24.90;5.53;;;10.30;99.90;;;;;;5034115;28;20046;-78
2024/01/24 10:53:54;;;;;;;22.08;4.55;;;10.20;99.90;;;;;;5033794;28;20071;-78
2024/01/24 10:56:21;;;;;;;26.00;5.32;;;10.20;99.90;;;;;;5033122;28;20053;-78
2024/01/24 10:58:48;;;;;;;28.48;5.88;;;10.20;99.90;;;;;;5008590;28;20040;-78
2024/01/24 11:01:14;;;;;;;26.88;4.65;;;10.20;99.90;;;;;;5033680;28;20087;-78
2024/01/24 11:03:39;;;;;;;33.17;6.32;;;10.10;99.90;;;;;;5017609;28;20049;-77
2024/01/24 11:06:12;;;;;;;25.30;5.15;;;10.10;99.90;;;;;;5033931;28;20085;-77
2024/01/24 11:08:48;;;;;;;29.10;5.43;;;10.00;99.90;;;;;;5033585;28;20053;-78
2024/01/24 11:11:18;;;;;;;28.58;5.97;;;10.00;99.90;;;;;;5032195;28;20052;-77
2024/01/24 11:13:44;;;;;;;35.53;5.88;;;10.00;99.90;;;;;;5033107;28;20468;-78
2024/01/24 11:16:25;;;;;;;41.22;7.60;;;10.00;99.90;;;;;;5032843;28;20099;-78
2024/01/24 11:18:51;;;;;;;25.17;5.65;;;10.10;99.90;;;;;;5033139;28;20377;-78
2024/01/24 11:21:21;;;;;;;24.23;4.97;;;10.00;99.90;;;;;;5031839;28;20136;-77
2024/01/24 11:23:49;;;;;;;30.88;6.07;;;10.10;99.90;;;;;;5014526;28;20052;-78
2024/01/24 11:26:18;;;;;;;24.50;7.03;;;10.00;99.90;;;;;;5028275;28;20116;-78
2024/01/24 11:28:44;;;;;;;27.33;4.63;;;10.00;99.90;;;;;;5032877;28;20053;-79
2024/01/24 11:31:11;;;;;;;28.13;4.78;;;10.00;99.90;;;;;;5031225;28;20056;-80
2024/01/24 11:34:15;;;;;;;28.00;5.03;;;10.00;99.90;;;;;;5025791;28;20049;-79
2024/01/24 11:36:50;;;;;;;31.35;6.85;;;10.00;99.90;;;;;;4986364;28;20052;-80
2024/01/24 11:39:37;;;;;;;21.15;4.90;;;10.00;99.90;;;;;;5013218;28;20061;-79
2024/01/24 11:42:32;;;;;;;26.75;4.97;;;9.90;99.90;;;;;;5024388;28;20161;-80
2024/01/24 11:45:16;;;;;;;27.13;5.15;;;10.00;99.90;;;;;;5029647;28;20491;-81
2024/01/24 11:47:45;;;;;;;28.38;5.32;;;10.00;99.90;;;;;;5023838;28;20108;-80
2024/01/24 11:50:11;;;;;;;25.48;4.90;;;10.00;99.90;;;;;;5012760;28;20484;-79
2024/01/24 11:52:38;;;;;;;30.13;5.50;;;10.00;99.90;;;;;;5030540;28;20052;-81
2024/01/24 11:55:04;;;;;;;24.40;5.10;;;10.00;99.90;;;;;;5032932;28;20045;-80
2024/01/24 11:57:30;;;;;;;25.40;5.43;;;10.00;99.90;;;;;;5031179;28;20057;-79
2024/01/24 11:59:56;;;;;;;23.42;4.53;;;10.10;99.90;;;;;;5027758;28;20415;-79
2024/01/24 12:02:23;;;;;;;28.88;5.65;;;10.00;99.90;;;;;;5030733;28;20053;-78
2024/01/24 12:04:53;;;;;;;27.67;5.40;;;10.10;99.90;;;;;;5031482;28;20307;-79
2024/01/24 12:07:19;;;;;;;29.70;5.93;;;10.10;99.90;;;;;;5032998;28;20391;-79
2024/01/24 12:09:45;;;;;;;31.50;5.13;;;10.10;99.90;;;;;;5029262;28;20415;-78
2024/01/24 12:12:12;;;;;;;35.45;5.57;;;10.10;99.90;;;;;;5032674;28;20053;-80
2024/01/24 12:14:39;;;;;;;27.90;5.15;;;10.10;99.90;;;;;;5030885;28;20042;-78
2024/01/24 12:17:04;;;;;;;23.98;5.05;;;10.10;99.90;;;;;;5032642;28;20049;-78
2024/01/24 12:19:30;;;;;;;21.75;4.85;;;10.10;99.90;;;;;;5031475;28;20042;-78
2024/01/24 12:21:58;;;;;;;29.73;4.70;;;10.10;99.90;;;;;;5033086;28;20128;-78
2024/01/24 12:24:24;;;;;;;27.50;5.10;;;10.10;99.90;;;;;;5031810;28;20068;-78
2024/01/24 12:26:50;;;;;;;31.30;5.45;;;10.10;99.90;;;;;;5032314;28;20041;-79
2024/01/24 12:29:16;;;;;;;26.65;4.97;;;10.10;99.90;;;;;;5016285;28;20124;-78
2024/01/24 12:31:45;;;;;;;27.33;5.18;;;10.20;99.90;;;;;;5029830;28;20176;-79
2024/01/24 12:34:11;;;;;;;29.60;5.45;;;10.20;99.90;;;;;;5029739;28;20088;-77
2024/01/24 12:36:37;;;;;;;24.83;4.90;;;10.20;99.90;;;;;;5029312;28;20046;-80
2024/01/24 12:39:06;;;;;;;33.42;6.28;;;10.20;99.90;;;;;;5027632;28;20050;-79